C. Angelo — WCZ5866 — position and weather

sailwx.info

Track history (hours):
 
Tides and Currents Weather Stations Pressure Air Temp Water Temp Dewpoint Dewpoint Depression Visibility Wind Speed Wind Dir Waves Ship Positions

C. Angelo

Owner: G T 110 INC, NEW HAVEN, CT. More information available from US FCC via Universal Licensing System and Coast Guard Vessel Documentation Center.

Last reported at 2015-Aug-31 17:33 UTC. Time now 2015-Aug-31 17:52 UTC.
Position N 41°18' W 072°54'.

Length 30 m; draft 4 m.

Type: Tug. MMSI: 366988420.

Date/timePositionNaut miles runAvg speedWind from/ knotsBaromVisibWave heightAir tempDewpointWater temp
2015-Aug-31 17:33N 41°18' W 072°54'0 0.0
2015-Aug-31 16:33N 41°18' W 072°54'0 0.0
2015-Aug-31 15:34N 41°18' W 072°54'0 0.0
2015-Aug-31 14:33N 41°18' W 072°54'0 0.0
2015-Aug-31 13:33N 41°18' W 072°54'0 0.0
2015-Aug-31 12:33N 41°18' W 072°54'  
2015-Aug-28 16:27N 41°18' W 072°54'0 0.0
2015-Aug-28 15:31N 41°18' W 072°54'0 0.0
2015-Aug-28 12:33N 41°18' W 072°54'0 0.0
2015-Aug-28 11:32N 41°18' W 072°54'0 0.0
2015-Aug-28 10:33N 41°18' W 072°54'0 0.0
2015-Aug-28 09:33N 41°18' W 072°54'0 0.0
2015-Aug-28 08:33N 41°18' W 072°54'0 0.0
2015-Aug-28 07:33N 41°18' W 072°54'0 0.0
2015-Aug-28 06:32N 41°18' W 072°54'0 0.0
2015-Aug-28 05:29N 41°18' W 072°54'0 0.0
2015-Aug-28 04:33N 41°18' W 072°54'0 0.0
2015-Aug-28 03:33N 41°18' W 072°54'0 0.0
2015-Aug-28 02:33N 41°18' W 072°54'0 0.0
2015-Aug-28 01:33N 41°18' W 072°54'0 0.0
2015-Aug-28 00:32N 41°18' W 072°54'0 0.0
2015-Aug-27 21:14N 41°18' W 072°54'1 0.9
2015-Aug-27 20:32N 41°17' W 072°55'6 6.3
2015-Aug-27 19:33N 41°11' W 072°56'9 8.6
2015-Aug-27 18:33N 41°06' W 073°06'9 8.7
2015-Aug-27 17:33N 41°03' W 073°16'9 8.8
2015-Aug-27 16:29N 40°59' W 073°28'8 8.4
2015-Aug-27 15:31N 40°55' W 073°37'8 7.9
2015-Aug-27 14:31N 40°51' W 073°46'7 6.4
2015-Aug-27 13:29N 40°48' W 073°54'6 6.2
2015-Aug-27 12:33N 40°43' W 073°58'1 1.0
2015-Aug-27 11:33N 40°42' W 073°58'0 0.0
2015-Aug-27 10:33N 40°42' W 073°58'0 0.0
2015-Aug-27 09:33N 40°42' W 073°58'0 0.0
2015-Aug-27 08:33N 40°42' W 073°58'0 0.0
2015-Aug-27 07:33N 40°42' W 073°58'0 0.0
2015-Aug-27 06:33N 40°42' W 073°58'0 0.0
2015-Aug-27 05:33N 40°42' W 073°58'0 0.0
2015-Aug-27 04:33N 40°42' W 073°58'0 0.0
2015-Aug-27 03:33N 40°42' W 073°58'0 0.0
2015-Aug-27 02:33N 40°42' W 073°58'0 0.0
2015-Aug-27 01:33N 40°42' W 073°58'0 0.0
2015-Aug-27 00:33N 40°42' W 073°58'0 0.0
2015-Aug-26 23:33N 40°42' W 073°58'0 0.0
2015-Aug-26 22:33N 40°42' W 073°58'0 0.0
2015-Aug-26 21:33N 40°42' W 073°58'0 0.0
2015-Aug-26 20:33N 40°42' W 073°58'0 0.0
2015-Aug-26 19:33N 40°42' W 073°58'0 0.0
2015-Aug-26 18:33N 40°42' W 073°58'0 0.0
2015-Aug-26 17:33N 40°42' W 073°58'0 0.0
2015-Aug-26 16:33N 40°42' W 073°58'0 0.0
2015-Aug-26 15:33N 40°42' W 073°58'0 0.0
2015-Aug-26 14:33N 40°42' W 073°58'0 0.0
2015-Aug-26 13:33N 40°42' W 073°58'0 0.0
2015-Aug-26 12:33N 40°42' W 073°58'0 0.0
2015-Aug-26 11:33N 40°42' W 073°58'0 0.1
2015-Aug-26 10:33N 40°42' W 073°58'0 0.1
2015-Aug-26 09:33N 40°42' W 073°58'0 0.0
2015-Aug-26 08:33N 40°42' W 073°58'0 0.0
2015-Aug-26 07:33N 40°42' W 073°58'0 0.0
2015-Aug-26 06:33N 40°42' W 073°58'0 0.0
2015-Aug-26 05:33N 40°42' W 073°58'0 0.0
2015-Aug-26 04:33N 40°42' W 073°58'0 0.0
2015-Aug-26 03:33N 40°42' W 073°58'0 0.0
2015-Aug-26 02:33N 40°42' W 073°58'0 0.0
2015-Aug-26 01:33N 40°42' W 073°58'0 0.0
2015-Aug-26 00:33N 40°42' W 073°58'0 0.0
2015-Aug-25 23:33N 40°42' W 073°58'0 0.0
2015-Aug-25 22:33N 40°42' W 073°58'0 0.0
2015-Aug-25 21:33N 40°42' W 073°58'0 0.0
2015-Aug-25 20:33N 40°42' W 073°58'0 0.0
2015-Aug-25 19:33N 40°42' W 073°58'0 0.0
2015-Aug-25 18:33N 40°42' W 073°58'0 0.0
2015-Aug-25 17:33N 40°42' W 073°58'0 0.0
2015-Aug-25 16:33N 40°42' W 073°58'0 0.0
2015-Aug-25 15:33N 40°42' W 073°58'0 0.0
2015-Aug-25 14:33N 40°42' W 073°58'0 0.0
2015-Aug-25 13:33N 40°42' W 073°58'0 0.0
2015-Aug-25 12:33N 40°42' W 073°58'0 0.0
2015-Aug-25 11:33N 40°42' W 073°58'0 0.0
2015-Aug-25 10:33N 40°42' W 073°58'0 0.0
2015-Aug-25 09:33N 40°42' W 073°58'0 0.0
2015-Aug-25 08:33N 40°42' W 073°58'0 0.0
2015-Aug-25 07:33N 40°42' W 073°58'0 0.0
2015-Aug-25 06:33N 40°42' W 073°58'0 0.0
2015-Aug-25 05:33N 40°42' W 073°58'0 0.0
2015-Aug-25 04:33N 40°42' W 073°58'0 0.0
2015-Aug-25 03:33N 40°42' W 073°58'0 0.0
2015-Aug-25 02:33N 40°42' W 073°58'0 0.0
2015-Aug-25 01:33N 40°42' W 073°58'0 0.0
2015-Aug-25 00:33N 40°42' W 073°58'0 0.0
2015-Aug-24 23:33N 40°42' W 073°58'0 0.0
2015-Aug-24 22:33N 40°42' W 073°58'0 0.0
2015-Aug-24 21:33N 40°42' W 073°58'0 0.0
2015-Aug-24 20:33N 40°42' W 073°58'0 0.0
2015-Aug-24 19:33N 40°42' W 073°58'0 0.0
2015-Aug-24 18:33N 40°42' W 073°58'0 0.0
2015-Aug-24 17:33N 40°42' W 073°58'0 0.0
2015-Aug-24 16:33N 40°42' W 073°58'0 0.0
2015-Aug-24 15:33N 40°42' W 073°58'0 0.0
2015-Aug-24 14:33N 40°42' W 073°58'0 0.0
2015-Aug-24 13:33N 40°42' W 073°58'0 0.0
2015-Aug-24 12:33N 40°42' W 073°58'0 0.0
2015-Aug-24 11:33N 40°42' W 073°58'0 0.0
2015-Aug-24 10:33N 40°42' W 073°58'0 0.0
2015-Aug-24 09:33N 40°42' W 073°58'0 0.0
2015-Aug-24 08:33N 40°42' W 073°58'0 0.0
2015-Aug-24 07:33N 40°42' W 073°58'0 0.0
2015-Aug-24 06:33N 40°42' W 073°58'0 0.0
2015-Aug-24 05:33N 40°42' W 073°58'0 0.0
2015-Aug-24 04:33N 40°42' W 073°58'0 0.0
2015-Aug-24 03:33N 40°42' W 073°58'0 0.0
2015-Aug-24 02:33N 40°42' W 073°58'0 0.0
2015-Aug-24 01:33N 40°42' W 073°58'0 0.0
2015-Aug-24 00:33N 40°42' W 073°58'0 0.0
2015-Aug-23 23:33N 40°42' W 073°58'0 0.0
2015-Aug-23 22:33N 40°42' W 073°58'0 0.0
2015-Aug-23 21:33N 40°42' W 073°58'0 0.0
2015-Aug-23 20:33N 40°42' W 073°58'0 0.0
2015-Aug-23 19:33N 40°42' W 073°58'0 0.0
2015-Aug-23 18:33N 40°42' W 073°58'0 0.0
2015-Aug-23 17:33N 40°42' W 073°58'0 0.0
2015-Aug-23 16:33N 40°42' W 073°58'0 0.0
2015-Aug-23 15:33N 40°42' W 073°58'0 0.0
2015-Aug-23 14:33N 40°42' W 073°58'0 0.0
2015-Aug-23 13:33N 40°42' W 073°58'0 0.0
2015-Aug-23 12:33N 40°42' W 073°58'0 0.0
2015-Aug-23 11:33N 40°42' W 073°58'0 0.0
2015-Aug-23 10:34N 40°42' W 073°58'0 0.0
2015-Aug-23 09:33N 40°42' W 073°58'0 0.0
2015-Aug-23 08:33N 40°42' W 073°58'0 0.0
2015-Aug-23 07:33N 40°42' W 073°58'0 0.0
2015-Aug-23 06:33N 40°42' W 073°58'0 0.0
2015-Aug-23 05:33N 40°42' W 073°58'0 0.0
2015-Aug-23 04:33N 40°42' W 073°58'0 0.0
2015-Aug-23 03:33N 40°42' W 073°58'0 0.0
2015-Aug-23 02:33N 40°42' W 073°58'0 0.0
2015-Aug-23 01:33N 40°42' W 073°58'0 0.0
2015-Aug-23 00:33N 40°42' W 073°58'0 0.0
2015-Aug-22 23:33N 40°42' W 073°58'0 0.0
2015-Aug-22 22:33N 40°42' W 073°58'0 0.0
2015-Aug-22 21:33N 40°42' W 073°58'0 0.0
2015-Aug-22 20:33N 40°42' W 073°58'0 0.0
2015-Aug-22 19:33N 40°42' W 073°58'0 0.0
2015-Aug-22 18:33N 40°42' W 073°58'0 0.0
2015-Aug-22 17:33N 40°42' W 073°58'0 0.0
2015-Aug-22 16:33N 40°42' W 073°58'0 0.0
2015-Aug-22 15:33N 40°42' W 073°58'0 0.0
2015-Aug-22 14:33N 40°42' W 073°58'0 0.0
2015-Aug-22 13:33N 40°42' W 073°58'0 0.0
2015-Aug-22 12:33N 40°42' W 073°58'0 0.0
2015-Aug-22 11:33N 40°42' W 073°58'0 0.0
2015-Aug-22 10:33N 40°42' W 073°58'0 0.0
2015-Aug-22 09:34N 40°42' W 073°58'0 0.0
2015-Aug-22 08:33N 40°42' W 073°58'0 0.0
2015-Aug-22 07:33N 40°42' W 073°58'0 0.0
2015-Aug-22 06:33N 40°42' W 073°58'0 0.0
2015-Aug-22 05:33N 40°42' W 073°58'0 0.0
2015-Aug-22 04:33N 40°42' W 073°58'0 0.0
2015-Aug-22 03:33N 40°42' W 073°58'0 0.0
2015-Aug-22 02:33N 40°42' W 073°58'0 0.0
2015-Aug-22 01:33N 40°42' W 073°58'0 0.0
2015-Aug-22 00:33N 40°42' W 073°58'0 0.0
2015-Aug-21 23:33N 40°42' W 073°58'0 0.0
2015-Aug-21 22:33N 40°42' W 073°58'0 0.0
2015-Aug-21 21:33N 40°42' W 073°58'0 0.0
2015-Aug-21 20:33N 40°42' W 073°58'0 0.0
2015-Aug-21 19:34N 40°42' W 073°58'0 0.0
2015-Aug-21 18:33N 40°42' W 073°58'0 0.0
2015-Aug-21 17:33N 40°42' W 073°58'  
Track history (hours):
 
Tides and Currents Weather Stations Pressure Air Temp Water Temp Dewpoint Dewpoint Depression Visibility Wind Speed Wind Dir Waves Ship Positions

C. Angelo

Owner: G T 110 INC, NEW HAVEN, CT. More information available from US FCC via Universal Licensing System and Coast Guard Vessel Documentation Center.

Last reported at 2015-Aug-31 17:33 UTC. Time now 2015-Aug-31 17:52 UTC.
Position N 41°18' W 072°54'.

Length 30 m; draft 4 m.

Type: Tug. MMSI: 366988420.

Date/timePositionNaut miles runAvg speedWind from/ knotsBaromVisibWave heightAir tempDewpointWater temp
2015-Aug-31 17:33N 41°18' W 072°54'0 0.0
2015-Aug-31 16:33N 41°18' W 072°54'0 0.0
2015-Aug-31 15:34N 41°18' W 072°54'0 0.0
2015-Aug-31 14:33N 41°18' W 072°54'0 0.0
2015-Aug-31 13:33N 41°18' W 072°54'0 0.0
2015-Aug-31 12:33N 41°18' W 072°54'  
2015-Aug-28 16:27N 41°18' W 072°54'0 0.0
2015-Aug-28 15:31N 41°18' W 072°54'0 0.0
2015-Aug-28 12:33N 41°18' W 072°54'0 0.0
2015-Aug-28 11:32N 41°18' W 072°54'0 0.0
2015-Aug-28 10:33N 41°18' W 072°54'0 0.0
2015-Aug-28 09:33N 41°18' W 072°54'0 0.0
2015-Aug-28 08:33N 41°18' W 072°54'0 0.0
2015-Aug-28 07:33N 41°18' W 072°54'0 0.0
2015-Aug-28 06:32N 41°18' W 072°54'0 0.0
2015-Aug-28 05:29N 41°18' W 072°54'0 0.0
2015-Aug-28 04:33N 41°18' W 072°54'0 0.0
2015-Aug-28 03:33N 41°18' W 072°54'0 0.0
2015-Aug-28 02:33N 41°18' W 072°54'0 0.0
2015-Aug-28 01:33N 41°18' W 072°54'0 0.0
2015-Aug-28 00:32N 41°18' W 072°54'0 0.0
2015-Aug-27 21:14N 41°18' W 072°54'1 0.9
2015-Aug-27 20:32N 41°17' W 072°55'6 6.3
2015-Aug-27 19:33N 41°11' W 072°56'9 8.6
2015-Aug-27 18:33N 41°06' W 073°06'9 8.7
2015-Aug-27 17:33N 41°03' W 073°16'9 8.8
2015-Aug-27 16:29N 40°59' W 073°28'8 8.4
2015-Aug-27 15:31N 40°55' W 073°37'8 7.9
2015-Aug-27 14:31N 40°51' W 073°46'7 6.4
2015-Aug-27 13:29N 40°48' W 073°54'6 6.2
2015-Aug-27 12:33N 40°43' W 073°58'1 1.0
2015-Aug-27 11:33N 40°42' W 073°58'0 0.0
2015-Aug-27 10:33N 40°42' W 073°58'0 0.0
2015-Aug-27 09:33N 40°42' W 073°58'0 0.0
2015-Aug-27 08:33N 40°42' W 073°58'0 0.0
2015-Aug-27 07:33N 40°42' W 073°58'0 0.0
2015-Aug-27 06:33N 40°42' W 073°58'0 0.0
2015-Aug-27 05:33N 40°42' W 073°58'0 0.0
2015-Aug-27 04:33N 40°42' W 073°58'0 0.0
2015-Aug-27 03:33N 40°42' W 073°58'0 0.0
2015-Aug-27 02:33N 40°42' W 073°58'0 0.0
2015-Aug-27 01:33N 40°42' W 073°58'0 0.0
2015-Aug-27 00:33N 40°42' W 073°58'0 0.0
2015-Aug-26 23:33N 40°42' W 073°58'0 0.0
2015-Aug-26 22:33N 40°42' W 073°58'0 0.0
2015-Aug-26 21:33N 40°42' W 073°58'0 0.0
2015-Aug-26 20:33N 40°42' W 073°58'0 0.0
2015-Aug-26 19:33N 40°42' W 073°58'0 0.0
2015-Aug-26 18:33N 40°42' W 073°58'0 0.0
2015-Aug-26 17:33N 40°42' W 073°58'0 0.0
2015-Aug-26 16:33N 40°42' W 073°58'0 0.0
2015-Aug-26 15:33N 40°42' W 073°58'0 0.0
2015-Aug-26 14:33N 40°42' W 073°58'0 0.0
2015-Aug-26 13:33N 40°42' W 073°58'0 0.0
2015-Aug-26 12:33N 40°42' W 073°58'0 0.0
2015-Aug-26 11:33N 40°42' W 073°58'0 0.1
2015-Aug-26 10:33N 40°42' W 073°58'0 0.1
2015-Aug-26 09:33N 40°42' W 073°58'0 0.0
2015-Aug-26 08:33N 40°42' W 073°58'0 0.0
2015-Aug-26 07:33N 40°42' W 073°58'0 0.0
2015-Aug-26 06:33N 40°42' W 073°58'0 0.0
2015-Aug-26 05:33N 40°42' W 073°58'0 0.0
2015-Aug-26 04:33N 40°42' W 073°58'0 0.0
2015-Aug-26 03:33N 40°42' W 073°58'0 0.0
2015-Aug-26 02:33N 40°42' W 073°58'0 0.0
2015-Aug-26 01:33N 40°42' W 073°58'0 0.0
2015-Aug-26 00:33N 40°42' W 073°58'0 0.0
2015-Aug-25 23:33N 40°42' W 073°58'0 0.0
2015-Aug-25 22:33N 40°42' W 073°58'0 0.0
2015-Aug-25 21:33N 40°42' W 073°58'0 0.0
2015-Aug-25 20:33N 40°42' W 073°58'0 0.0
2015-Aug-25 19:33N 40°42' W 073°58'0 0.0
2015-Aug-25 18:33N 40°42' W 073°58'0 0.0
2015-Aug-25 17:33N 40°42' W 073°58'0 0.0
2015-Aug-25 16:33N 40°42' W 073°58'0 0.0
2015-Aug-25 15:33N 40°42' W 073°58'0 0.0
2015-Aug-25 14:33N 40°42' W 073°58'0 0.0
2015-Aug-25 13:33N 40°42' W 073°58'0 0.0
2015-Aug-25 12:33N 40°42' W 073°58'0 0.0
2015-Aug-25 11:33N 40°42' W 073°58'0 0.0
2015-Aug-25 10:33N 40°42' W 073°58'0 0.0
2015-Aug-25 09:33N 40°42' W 073°58'0 0.0
2015-Aug-25 08:33N 40°42' W 073°58'0 0.0
2015-Aug-25 07:33N 40°42' W 073°58'0 0.0
2015-Aug-25 06:33N 40°42' W 073°58'0 0.0
2015-Aug-25 05:33N 40°42' W 073°58'0 0.0
2015-Aug-25 04:33N 40°42' W 073°58'0 0.0
2015-Aug-25 03:33N 40°42' W 073°58'0 0.0
2015-Aug-25 02:33N 40°42' W 073°58'0 0.0
2015-Aug-25 01:33N 40°42' W 073°58'0 0.0
2015-Aug-25 00:33N 40°42' W 073°58'0 0.0
2015-Aug-24 23:33N 40°42' W 073°58'0 0.0
2015-Aug-24 22:33N 40°42' W 073°58'0 0.0
2015-Aug-24 21:33N 40°42' W 073°58'0 0.0
2015-Aug-24 20:33N 40°42' W 073°58'0 0.0
2015-Aug-24 19:33N 40°42' W 073°58'0 0.0
2015-Aug-24 18:33N 40°42' W 073°58'0 0.0
2015-Aug-24 17:33N 40°42' W 073°58'0 0.0
2015-Aug-24 16:33N 40°42' W 073°58'0 0.0
2015-Aug-24 15:33N 40°42' W 073°58'0 0.0
2015-Aug-24 14:33N 40°42' W 073°58'0 0.0
2015-Aug-24 13:33N 40°42' W 073°58'0 0.0
2015-Aug-24 12:33N 40°42' W 073°58'0 0.0
2015-Aug-24 11:33N 40°42' W 073°58'0 0.0
2015-Aug-24 10:33N 40°42' W 073°58'0 0.0
2015-Aug-24 09:33N 40°42' W 073°58'0 0.0
2015-Aug-24 08:33N 40°42' W 073°58'0 0.0
2015-Aug-24 07:33N 40°42' W 073°58'0 0.0
2015-Aug-24 06:33N 40°42' W 073°58'0 0.0
2015-Aug-24 05:33N 40°42' W 073°58'0 0.0
2015-Aug-24 04:33N 40°42' W 073°58'0 0.0
2015-Aug-24 03:33N 40°42' W 073°58'0 0.0
2015-Aug-24 02:33N 40°42' W 073°58'0 0.0
2015-Aug-24 01:33N 40°42' W 073°58'0 0.0
2015-Aug-24 00:33N 40°42' W 073°58'0 0.0
2015-Aug-23 23:33N 40°42' W 073°58'0 0.0
2015-Aug-23 22:33N 40°42' W 073°58'0 0.0
2015-Aug-23 21:33N 40°42' W 073°58'0 0.0
2015-Aug-23 20:33N 40°42' W 073°58'0 0.0
2015-Aug-23 19:33N 40°42' W 073°58'0 0.0
2015-Aug-23 18:33N 40°42' W 073°58'0 0.0
2015-Aug-23 17:33N 40°42' W 073°58'0 0.0
2015-Aug-23 16:33N 40°42' W 073°58'0 0.0
2015-Aug-23 15:33N 40°42' W 073°58'0 0.0
2015-Aug-23 14:33N 40°42' W 073°58'0 0.0
2015-Aug-23 13:33N 40°42' W 073°58'0 0.0
2015-Aug-23 12:33N 40°42' W 073°58'0 0.0
2015-Aug-23 11:33N 40°42' W 073°58'0 0.0
2015-Aug-23 10:34N 40°42' W 073°58'0 0.0
2015-Aug-23 09:33N 40°42' W 073°58'0 0.0
2015-Aug-23 08:33N 40°42' W 073°58'0 0.0
2015-Aug-23 07:33N 40°42' W 073°58'0 0.0
2015-Aug-23 06:33N 40°42' W 073°58'0 0.0
2015-Aug-23 05:33N 40°42' W 073°58'0 0.0
2015-Aug-23 04:33N 40°42' W 073°58'0 0.0
2015-Aug-23 03:33N 40°42' W 073°58'0 0.0
2015-Aug-23 02:33N 40°42' W 073°58'0 0.0
2015-Aug-23 01:33N 40°42' W 073°58'0 0.0
2015-Aug-23 00:33N 40°42' W 073°58'0 0.0
2015-Aug-22 23:33N 40°42' W 073°58'0 0.0
2015-Aug-22 22:33N 40°42' W 073°58'0 0.0
2015-Aug-22 21:33N 40°42' W 073°58'0 0.0
2015-Aug-22 20:33N 40°42' W 073°58'0 0.0
2015-Aug-22 19:33N 40°42' W 073°58'0 0.0
2015-Aug-22 18:33N 40°42' W 073°58'0 0.0
2015-Aug-22 17:33N 40°42' W 073°58'0 0.0
2015-Aug-22 16:33N 40°42' W 073°58'0 0.0
2015-Aug-22 15:33N 40°42' W 073°58'0 0.0
2015-Aug-22 14:33N 40°42' W 073°58'0 0.0
2015-Aug-22 13:33N 40°42' W 073°58'0 0.0
2015-Aug-22 12:33N 40°42' W 073°58'0 0.0
2015-Aug-22 11:33N 40°42' W 073°58'0 0.0
2015-Aug-22 10:33N 40°42' W 073°58'0 0.0
2015-Aug-22 09:34N 40°42' W 073°58'0 0.0
2015-Aug-22 08:33N 40°42' W 073°58'0 0.0
2015-Aug-22 07:33N 40°42' W 073°58'0 0.0
2015-Aug-22 06:33N 40°42' W 073°58'0 0.0
2015-Aug-22 05:33N 40°42' W 073°58'0 0.0
2015-Aug-22 04:33N 40°42' W 073°58'0 0.0
2015-Aug-22 03:33N 40°42' W 073°58'0 0.0
2015-Aug-22 02:33N 40°42' W 073°58'0 0.0
2015-Aug-22 01:33N 40°42' W 073°58'0 0.0
2015-Aug-22 00:33N 40°42' W 073°58'0 0.0
2015-Aug-21 23:33N 40°42' W 073°58'0 0.0
2015-Aug-21 22:33N 40°42' W 073°58'0 0.0
2015-Aug-21 21:33N 40°42' W 073°58'0 0.0
2015-Aug-21 20:33N 40°42' W 073°58'0 0.0
2015-Aug-21 19:34N 40°42' W 073°58'0 0.0
2015-Aug-21 18:33N 40°42' W 073°58'0 0.0
2015-Aug-21 17:33N 40°42' W 073°58'  

Dump ship's entire track history